Terminal Aerodrome Forecast
Issued by NWS Northern Indiana

Home | Current Version | Previous Version | Text Only | Print | Product List | Glossary On
Versions: 1 2 3 4 5 6 7 8 9 10 11 12 13 14 15 16 17 18
492
FTUS43 KIWX 140524
TAFFWA
TAF
KFWA 140524Z 1406/1506 08010KT P6SM VCSH OVC070
     FM141300 08006KT P6SM OVC030
     FM141500 07005KT P6SM OVC015
     FM142000 32005KT P6SM OVC020
     FM142200 34004KT P6SM SCT020 BKN120=

USA.gov is the U.S. government's official web portal to all federal, state and local government web resources and services.